createdAt,value
2023-05-18T00:00:59.303Z,75.77
2023-05-18T00:03:26.282Z,75.87
2023-05-18T00:05:53.174Z,76.25
2023-05-18T00:08:19.808Z,76.50
2023-05-18T00:10:46.837Z,76.50
2023-05-18T00:13:13.604Z,76.86
2023-05-18T00:15:40.624Z,76.41
2023-05-18T00:18:07.560Z,75.84
2023-05-18T00:20:34.812Z,75.65
2023-05-18T00:23:02.441Z,75.43
2023-05-18T00:25:29.403Z,75.70
2023-05-18T00:27:56.284Z,76.06
2023-05-18T00:30:25.624Z,75.43
2023-05-18T00:32:52.308Z,76.07
2023-05-18T00:35:19.181Z,76.15
2023-05-18T00:37:45.991Z,76.01
2023-05-18T00:40:12.835Z,75.89
2023-05-18T00:42:39.529Z,75.94
2023-05-18T00:45:06.837Z,75.67
2023-05-18T00:47:33.513Z,75.86
2023-05-18T00:50:00.208Z,76.04
2023-05-18T00:52:27.400Z,75.93
2023-05-18T00:54:54.031Z,76.28
2023-05-18T00:57:20.943Z,76.41
2023-05-18T00:59:47.649Z,76.39
2023-05-18T01:02:14.986Z,76.92
2023-05-18T01:04:44.076Z,76.55
2023-05-18T01:07:11.429Z,76.72
2023-05-18T01:09:38.388Z,76.74
2023-05-18T01:12:41.932Z,76.69
2023-05-18T01:15:16.135Z,77.16
2023-05-18T01:17:54.862Z,77.66
2023-05-18T01:20:59.564Z,77.52
2023-05-18T01:23:48.708Z,76.43
2023-05-18T01:26:30.143Z,77.36
2023-05-18T01:29:00.831Z,77.56
2023-05-18T01:31:27.846Z,77.09
2023-05-18T01:33:54.608Z,76.94
2023-05-18T01:36:21.262Z,77.07
2023-05-18T01:38:47.887Z,76.66
2023-05-18T01:41:21.320Z,76.08
2023-05-18T01:44:26.289Z,75.87
2023-05-18T01:47:11.183Z,75.94
2023-05-18T01:49:42.211Z,75.32
2023-05-18T01:52:19.568Z,75.40
2023-05-18T01:54:47.968Z,75.33
2023-05-18T01:57:14.691Z,75.22
2023-05-18T01:59:41.636Z,74.14
2023-05-18T02:02:08.998Z,74.25
2023-05-18T02:04:35.788Z,73.91
2023-05-18T02:07:02.687Z,74.50
2023-05-18T02:09:29.500Z,74.88
2023-05-18T02:11:56.176Z,75.31
2023-05-18T02:14:22.844Z,75.90
2023-05-18T02:16:53.049Z,75.78
2023-05-18T02:19:20.824Z,75.44
2023-05-18T02:21:47.466Z,75.60
2023-05-18T02:24:14.169Z,76.21
2023-05-18T02:26:41.703Z,76.36
2023-05-18T02:29:11.748Z,76.65
2023-05-18T02:31:38.758Z,76.86
2023-05-18T02:34:05.485Z,77.15
2023-05-18T02:36:39.895Z,77.49
2023-05-18T02:39:07.160Z,77.84
2023-05-18T02:41:34.135Z,77.07
2023-05-18T02:44:02.309Z,77.35
2023-05-18T02:46:29.283Z,77.70
2023-05-18T02:48:56.235Z,77.87
2023-05-18T02:51:23.031Z,77.96
2023-05-18T02:53:50.338Z,77.73
2023-05-18T02:56:17.865Z,77.96
2023-05-18T02:58:45.034Z,78.13
2023-05-18T03:01:14.893Z,78.73
2023-05-18T03:03:42.622Z,79.04
2023-05-18T03:06:09.506Z,78.94
2023-05-18T03:08:41.151Z,78.92
2023-05-18T03:11:07.942Z,79.17
2023-05-18T03:13:34.693Z,79.27
2023-05-18T03:16:01.447Z,78.78
2023-05-18T03:18:28.273Z,79.41
2023-05-18T03:20:54.964Z,79.23
2023-05-18T03:23:21.692Z,79.25
2023-05-18T03:25:54.524Z,79.37
2023-05-18T03:28:21.528Z,79.71
2023-05-18T03:30:48.278Z,80.01
2023-05-18T03:33:14.986Z,77.61
2023-05-18T03:35:41.771Z,77.97
2023-05-18T03:38:08.405Z,78.55
2023-05-18T03:40:35.110Z,79.08
2023-05-18T03:43:01.894Z,78.75
2023-05-18T03:45:29.040Z,79.55
2023-05-18T03:47:56.052Z,79.78
2023-05-18T03:50:23.033Z,79.76
2023-05-18T03:52:49.690Z,79.39
2023-05-18T03:55:17.341Z,79.65
2023-05-18T03:57:44.154Z,79.38
2023-05-18T04:00:12.218Z,79.44
2023-05-18T04:02:39.694Z,79.29
2023-05-18T04:05:06.974Z,79.19
2023-05-18T04:07:33.639Z,79.11
2023-05-18T04:10:00.364Z,79.11
2023-05-18T04:12:27.000Z,79.56
2023-05-18T04:14:54.227Z,79.74
2023-05-18T04:17:22.408Z,79.91
2023-05-18T04:19:50.107Z,80.38
2023-05-18T04:22:16.953Z,80.31
2023-05-18T04:24:45.736Z,80.79
2023-05-18T04:27:12.642Z,80.68
2023-05-18T04:29:40.207Z,80.88
2023-05-18T04:32:08.093Z,80.86
2023-05-18T04:34:38.141Z,80.69
2023-05-18T04:37:08.102Z,80.80
2023-05-18T04:39:35.293Z,80.76
2023-05-18T04:42:02.165Z,81.06
2023-05-18T04:44:29.217Z,81.59
2023-05-18T04:46:56.352Z,81.66
2023-05-18T04:49:23.225Z,81.59
2023-05-18T04:51:50.462Z,82.17
2023-05-18T04:54:17.171Z,82.76
2023-05-18T04:56:43.832Z,82.50
2023-05-18T04:59:10.859Z,82.94
2023-05-18T05:01:37.621Z,83.06
2023-05-18T05:04:06.376Z,83.41
2023-05-18T05:06:33.206Z,83.39
2023-05-18T05:08:59.879Z,82.99
2023-05-18T05:11:26.527Z,83.04
2023-05-18T05:13:53.152Z,82.54
2023-05-18T05:16:19.857Z,83.21
2023-05-18T05:18:47.493Z,83.25
2023-05-18T05:21:14.291Z,83.96
2023-05-18T05:23:41.561Z,83.92
2023-05-18T05:26:08.229Z,83.71
2023-05-18T05:28:34.874Z,83.70
2023-05-18T05:31:01.654Z,83.37
2023-05-18T05:33:28.374Z,83.69
2023-05-18T05:35:55.015Z,83.36
2023-05-18T05:38:21.688Z,83.44
2023-05-18T05:40:48.449Z,83.43
2023-05-18T05:43:15.138Z,83.47
2023-05-18T05:45:43.609Z,83.32
2023-05-18T05:48:13.522Z,83.27
2023-05-18T05:50:40.674Z,83.81
2023-05-18T05:53:07.338Z,83.69
2023-05-18T05:55:37.817Z,83.83
2023-05-18T05:58:05.412Z,84.36
2023-05-18T06:00:32.064Z,83.84
2023-05-18T06:02:59.078Z,83.59
2023-05-18T06:05:25.993Z,83.83
2023-05-18T06:07:52.823Z,83.70
2023-05-18T06:10:19.544Z,83.92
2023-05-18T06:12:46.164Z,82.86
2023-05-18T06:15:12.869Z,82.60
2023-05-18T06:17:39.859Z,83.04
2023-05-18T06:20:07.715Z,83.10
2023-05-18T06:22:34.359Z,82.68
2023-05-18T06:25:01.053Z,83.25
2023-05-18T06:27:27.960Z,83.38
2023-05-18T06:29:54.669Z,82.60
2023-05-18T06:32:22.503Z,82.86
2023-05-18T06:34:50.814Z,82.85
2023-05-18T06:37:17.862Z,83.02
2023-05-18T06:39:44.580Z,83.05
2023-05-18T06:42:11.390Z,82.55
2023-05-18T06:44:38.238Z,81.97
2023-05-18T06:47:05.273Z,82.40
2023-05-18T06:49:32.188Z,82.63
2023-05-18T06:51:58.810Z,82.17
2023-05-18T06:54:25.538Z,82.70
2023-05-18T06:56:52.464Z,83.04
2023-05-18T06:59:19.142Z,82.51
2023-05-18T07:01:45.892Z,82.40
2023-05-18T07:04:12.676Z,82.11
2023-05-18T07:06:39.515Z,81.96
2023-05-18T07:09:07.279Z,80.77
2023-05-18T07:11:34.008Z,80.37
2023-05-18T07:14:00.690Z,81.01
2023-05-18T07:16:28.294Z,81.07
2023-05-18T07:18:57.213Z,81.37
2023-05-18T07:21:23.885Z,81.83
2023-05-18T07:23:52.637Z,81.31
2023-05-18T07:26:19.787Z,80.90
2023-05-18T07:28:47.821Z,80.80
2023-05-18T07:31:16.488Z,80.99
2023-05-18T07:33:44.566Z,80.40
2023-05-18T07:36:11.407Z,81.00
2023-05-18T07:38:38.127Z,80.63
2023-05-18T07:41:04.796Z,80.04
2023-05-18T07:43:31.746Z,79.57
2023-05-18T07:45:58.386Z,79.18
2023-05-18T07:48:25.000Z,79.58
2023-05-18T07:50:51.753Z,78.98
2023-05-18T07:53:18.675Z,79.47
2023-05-18T07:55:45.737Z,79.75
2023-05-18T07:58:13.452Z,79.87
2023-05-18T08:00:40.162Z,79.74
2023-05-18T08:03:07.065Z,79.34
2023-05-18T08:05:34.076Z,79.69
2023-05-18T08:08:00.967Z,79.84
2023-05-18T08:10:27.590Z,79.37
2023-05-18T08:12:54.215Z,78.12
2023-05-18T08:15:21.000Z,78.63
2023-05-18T08:17:47.756Z,78.58
2023-05-18T08:20:14.479Z,78.88
2023-05-18T08:22:42.523Z,78.81
2023-05-18T08:25:10.336Z,78.35
2023-05-18T08:27:37.182Z,79.39
2023-05-18T08:30:04.155Z,78.84
2023-05-18T08:32:30.872Z,78.12
2023-05-18T08:34:57.515Z,79.04
2023-05-18T08:37:29.486Z,79.21
2023-05-18T08:39:56.736Z,78.75
2023-05-18T08:42:48.559Z,78.89
2023-05-18T08:45:40.372Z,79.70
2023-05-18T08:48:07.149Z,78.89
2023-05-18T08:50:34.237Z,79.22
2023-05-18T08:53:01.925Z,78.85
2023-05-18T08:55:29.308Z,78.84
2023-05-18T08:57:58.058Z,79.03
2023-05-18T09:00:24.971Z,78.91
2023-05-18T09:02:51.967Z,78.32
2023-05-18T09:05:19.064Z,77.07
2023-05-18T09:07:45.869Z,77.02
2023-05-18T09:10:13.748Z,75.99
2023-05-18T09:12:42.793Z,77.01
2023-05-18T09:15:10.724Z,75.76
2023-05-18T09:17:37.580Z,74.68
2023-05-18T09:20:07.667Z,74.91
2023-05-18T09:22:35.902Z,73.58
2023-05-18T09:25:06.170Z,71.44
2023-05-18T09:27:32.853Z,71.59
2023-05-18T09:29:59.544Z,69.18
2023-05-18T09:32:26.312Z,68.54
2023-05-18T09:34:53.694Z,67.50
2023-05-18T09:37:20.748Z,66.55
2023-05-18T09:40:08.250Z,64.94
2023-05-18T09:42:39.040Z,64.84
2023-05-18T09:45:20.281Z,66.40
2023-05-18T09:47:48.246Z,66.02
2023-05-18T09:50:14.897Z,65.81
2023-05-18T09:52:43.349Z,64.58
2023-05-18T09:55:13.366Z,63.62
2023-05-18T09:57:44.069Z,64.47
2023-05-18T10:00:11.888Z,63.06
2023-05-18T10:02:42.343Z,62.73
2023-05-18T10:05:29.782Z,64.48
2023-05-18T10:07:57.209Z,63.99
2023-05-18T10:10:26.229Z,65.15
2023-05-18T10:12:53.602Z,63.60
2023-05-18T10:15:23.674Z,63.86
2023-05-18T10:17:51.360Z,63.38
2023-05-18T10:20:19.417Z,64.52
2023-05-18T10:22:47.631Z,63.51
2023-05-18T10:25:20.055Z,63.08
2023-05-18T10:27:47.997Z,62.85
2023-05-18T10:30:14.833Z,61.17
2023-05-18T10:32:41.612Z,61.34
2023-05-18T10:35:08.799Z,59.07
2023-05-18T10:37:35.653Z,58.11
2023-05-18T10:40:04.104Z,56.75
2023-05-18T10:42:31.351Z,57.51
2023-05-18T10:44:58.124Z,57.45
2023-05-18T10:47:25.996Z,57.60
2023-05-18T10:49:52.864Z,58.44
2023-05-18T10:52:19.665Z,56.07
2023-05-18T10:54:46.657Z,54.47
2023-05-18T10:57:18.004Z,56.79
2023-05-18T10:59:47.446Z,56.54
2023-05-18T11:02:16.774Z,54.92
2023-05-18T11:04:43.855Z,58.09
2023-05-18T11:07:11.587Z,58.78
2023-05-18T11:09:41.436Z,53.92
2023-05-18T11:12:12.219Z,54.22
2023-05-18T11:14:52.187Z,53.68
2023-05-18T11:17:22.506Z,53.37
2023-05-18T11:20:13.518Z,54.34
2023-05-18T11:22:46.189Z,54.48
2023-05-18T11:25:25.660Z,53.66
2023-05-18T11:27:52.831Z,53.53
2023-05-18T11:30:35.723Z,53.49
2023-05-18T11:33:12.662Z,53.98
2023-05-18T11:35:58.800Z,53.23
2023-05-18T11:38:50.377Z,53.57
2023-05-18T11:41:30.954Z,54.57
2023-05-18T11:44:15.513Z,55.69
2023-05-18T11:47:01.240Z,55.71
2023-05-18T11:49:28.937Z,55.92
2023-05-18T11:52:08.933Z,57.79
2023-05-18T11:54:39.598Z,55.81
2023-05-18T11:57:06.610Z,56.14
2023-05-18T11:59:42.738Z,56.94
2023-05-18T12:02:12.799Z,55.30
2023-05-18T12:04:43.860Z,56.76
2023-05-18T12:07:10.522Z,56.08
2023-05-18T12:09:37.354Z,56.88
2023-05-18T12:12:04.213Z,57.49
2023-05-18T12:14:31.441Z,56.75
2023-05-18T12:16:58.838Z,56.70
2023-05-18T12:19:25.737Z,57.30
2023-05-18T12:21:52.678Z,58.55
2023-05-18T12:24:19.289Z,58.18
2023-05-18T12:26:46.842Z,57.77
2023-05-18T12:29:19.913Z,59.07
2023-05-18T12:31:47.407Z,57.92
2023-05-18T12:34:14.704Z,58.18
2023-05-18T12:36:43.891Z,59.35
2023-05-18T12:39:10.642Z,58.64
2023-05-18T12:41:37.311Z,58.48
2023-05-18T12:44:05.124Z,58.20
2023-05-18T12:46:31.886Z,59.95
2023-05-18T12:48:59.662Z,60.20
2023-05-18T12:51:31.561Z,60.20
2023-05-18T12:53:58.288Z,60.25
2023-05-18T12:56:28.534Z,60.91
2023-05-18T12:59:05.961Z,60.48
2023-05-18T13:01:41.959Z,61.18
2023-05-18T13:04:10.955Z,61.59
2023-05-18T13:06:38.473Z,61.18
2023-05-18T13:09:10.445Z,61.55
2023-05-18T13:11:38.342Z,61.78
2023-05-18T13:14:06.610Z,61.49
2023-05-18T13:16:34.498Z,62.14
2023-05-18T13:19:02.800Z,62.94
2023-05-18T13:21:29.878Z,62.96
2023-05-18T13:23:56.683Z,61.21
2023-05-18T13:26:24.020Z,60.93
2023-05-18T13:28:54.957Z,61.72
2023-05-18T13:31:22.427Z,62.28
2023-05-18T13:33:49.801Z,61.88
2023-05-18T13:36:16.854Z,62.00
2023-05-18T13:38:43.654Z,61.57
2023-05-18T13:41:12.126Z,61.92
2023-05-18T13:43:38.785Z,61.60
2023-05-18T13:46:06.181Z,60.63
2023-05-18T13:48:33.040Z,61.49
2023-05-18T13:50:59.852Z,62.24
2023-05-18T13:53:26.752Z,62.51
2023-05-18T13:55:53.389Z,63.10
2023-05-18T13:58:20.044Z,63.25
2023-05-18T14:00:46.805Z,62.08
2023-05-18T14:03:15.333Z,62.06
2023-05-18T14:05:42.172Z,61.33
2023-05-18T14:08:08.899Z,61.36
2023-05-18T14:10:35.783Z,61.19
2023-05-18T14:13:02.405Z,62.05
2023-05-18T14:15:29.039Z,62.06
2023-05-18T14:17:55.942Z,63.00
2023-05-18T14:20:22.590Z,63.19
2023-05-18T14:22:49.295Z,62.93
2023-05-18T14:25:16.380Z,63.11
2023-05-18T14:27:43.029Z,62.65
2023-05-18T14:30:09.949Z,62.12
2023-05-18T14:32:36.838Z,63.08
2023-05-18T14:35:03.927Z,63.50
2023-05-18T14:37:30.626Z,63.63
2023-05-18T14:39:57.268Z,63.61
2023-05-18T14:42:23.905Z,63.01
2023-05-18T14:44:50.710Z,62.46
2023-05-18T14:47:18.059Z,62.05
2023-05-18T14:49:44.761Z,60.88
2023-05-18T14:52:11.476Z,62.03
2023-05-18T14:54:38.237Z,62.53
2023-05-18T14:57:05.132Z,62.36
2023-05-18T14:59:31.848Z,61.93
2023-05-18T15:01:58.700Z,62.01
2023-05-18T15:04:25.866Z,62.57
2023-05-18T15:06:52.860Z,62.29
2023-05-18T15:09:19.764Z,62.96
2023-05-18T15:11:46.649Z,64.50
2023-05-18T15:14:13.332Z,63.94
2023-05-18T15:16:40.147Z,64.33
2023-05-18T15:19:06.999Z,63.03
2023-05-18T15:21:36.795Z,64.04
2023-05-18T15:24:03.524Z,63.83
2023-05-18T15:26:30.211Z,64.35
2023-05-18T15:28:56.980Z,64.05
2023-05-18T15:31:23.758Z,63.91
2023-05-18T15:33:50.793Z,64.13
2023-05-18T15:36:17.543Z,65.12
2023-05-18T15:38:57.754Z,64.71
2023-05-18T15:41:26.266Z,64.76
2023-05-18T15:43:52.997Z,65.27
2023-05-18T15:46:19.694Z,65.54
2023-05-18T15:48:46.367Z,66.19
2023-05-18T15:51:13.069Z,66.14
2023-05-18T15:53:40.278Z,66.81
2023-05-18T15:56:07.070Z,67.38
2023-05-18T15:58:34.349Z,66.72
2023-05-18T16:01:01.041Z,66.44
2023-05-18T16:03:27.836Z,67.03
2023-05-18T16:05:54.586Z,66.73
2023-05-18T16:08:21.502Z,66.76
2023-05-18T16:10:48.159Z,67.84
2023-05-18T16:13:14.891Z,67.92
2023-05-18T16:15:41.946Z,68.48
2023-05-18T16:18:08.724Z,69.00
2023-05-18T16:20:35.599Z,68.95
2023-05-18T16:23:02.298Z,68.56
2023-05-18T16:25:29.497Z,68.36
2023-05-18T16:27:56.461Z,68.41
2023-05-18T16:30:23.336Z,68.52
2023-05-18T16:32:50.057Z,68.05
2023-05-18T16:35:16.820Z,68.27
2023-05-18T16:37:43.603Z,69.37
2023-05-18T16:40:10.771Z,68.53
2023-05-18T16:42:37.480Z,69.40
2023-05-18T16:45:04.505Z,69.55
2023-05-18T16:47:34.016Z,70.03
2023-05-18T16:50:00.826Z,69.41
2023-05-18T16:52:27.681Z,69.35
2023-05-18T16:54:54.361Z,69.42
2023-05-18T16:57:21.256Z,69.92
2023-05-18T16:59:48.213Z,69.51
2023-05-18T17:02:15.751Z,69.91
2023-05-18T17:04:42.989Z,70.37
2023-05-18T17:07:10.001Z,70.42
2023-05-18T17:09:40.181Z,70.81
2023-05-18T17:12:07.775Z,70.73
2023-05-18T17:14:34.451Z,70.92
2023-05-18T17:17:01.164Z,70.88
2023-05-18T17:19:27.813Z,71.03
2023-05-18T17:21:54.859Z,71.21
2023-05-18T17:24:21.500Z,71.16
2023-05-18T17:26:48.340Z,71.92
2023-05-18T17:29:17.199Z,72.53
2023-05-18T17:31:45.924Z,72.89
2023-05-18T17:34:12.665Z,72.95
2023-05-18T17:36:39.408Z,72.61
2023-05-18T17:39:06.173Z,73.81
2023-05-18T17:41:33.663Z,72.84
2023-05-18T17:44:00.828Z,73.57
2023-05-18T17:46:30.842Z,73.61
2023-05-18T17:48:57.526Z,73.33
2023-05-18T17:51:25.191Z,74.00
2023-05-18T17:53:52.027Z,74.11
2023-05-18T17:56:18.773Z,74.35
2023-05-18T17:58:45.576Z,74.63
2023-05-18T18:01:12.609Z,74.82
2023-05-18T18:03:39.492Z,74.90
2023-05-18T18:06:06.862Z,74.81
2023-05-18T18:08:33.921Z,74.45
2023-05-18T18:11:00.808Z,74.98
2023-05-18T18:13:27.610Z,75.45
2023-05-18T18:15:54.689Z,75.61
2023-05-18T18:18:21.578Z,75.51
2023-05-18T18:20:48.442Z,75.67
2023-05-18T18:23:15.836Z,76.05
2023-05-18T18:25:44.172Z,76.27
2023-05-18T18:28:15.088Z,76.29
2023-05-18T18:30:51.383Z,76.40
2023-05-18T18:33:19.891Z,76.89
2023-05-18T18:35:47.073Z,77.41
2023-05-18T18:38:13.729Z,77.21
2023-05-18T18:40:40.506Z,77.52
2023-05-18T18:43:07.323Z,77.37
2023-05-18T18:45:33.993Z,77.24
2023-05-18T18:48:01.521Z,77.58
2023-05-18T18:50:28.990Z,78.20
2023-05-18T18:52:55.806Z,78.03
2023-05-18T18:55:24.346Z,78.58
2023-05-18T18:57:53.588Z,78.21
2023-05-18T19:00:21.514Z,78.95
2023-05-18T19:02:48.308Z,78.64
2023-05-18T19:05:21.549Z,78.73
2023-05-18T19:07:49.522Z,79.04
2023-05-18T19:10:16.405Z,79.48
2023-05-18T19:12:45.831Z,79.55
2023-05-18T19:15:15.212Z,79.59
2023-05-18T19:17:42.097Z,79.50
2023-05-18T19:20:09.590Z,79.76
2023-05-18T19:22:36.270Z,79.66
2023-05-18T19:25:02.936Z,79.29
2023-05-18T19:27:29.652Z,79.55
2023-05-18T19:29:56.756Z,78.95
2023-05-18T19:32:23.432Z,79.14
2023-05-18T19:34:50.149Z,78.89
2023-05-18T19:37:16.896Z,79.17
2023-05-18T19:39:43.754Z,79.67
2023-05-18T19:42:10.411Z,78.99
2023-05-18T19:44:37.183Z,79.15
2023-05-18T19:47:04.248Z,78.66
2023-05-18T19:49:31.419Z,79.09
2023-05-18T19:51:58.160Z,79.01
2023-05-18T19:54:24.942Z,79.39
2023-05-18T19:56:51.758Z,79.33
2023-05-18T19:59:18.546Z,78.92
2023-05-18T20:01:45.592Z,79.47
2023-05-18T20:04:12.752Z,79.98
2023-05-18T20:06:39.447Z,78.97
2023-05-18T20:09:06.547Z,79.35
2023-05-18T20:11:33.458Z,79.68
2023-05-18T20:14:00.200Z,79.27
2023-05-18T20:16:29.075Z,79.91
2023-05-18T20:18:55.912Z,79.61
2023-05-18T20:21:22.731Z,79.58
2023-05-18T20:23:49.424Z,79.39
2023-05-18T20:26:17.262Z,78.80
2023-05-18T20:28:43.911Z,78.98
2023-05-18T20:31:10.886Z,78.63
2023-05-18T20:33:37.595Z,78.26
2023-05-18T20:36:06.133Z,78.47
2023-05-18T20:38:33.418Z,78.45
2023-05-18T20:41:01.721Z,78.76
2023-05-18T20:43:28.519Z,79.39
2023-05-18T20:45:56.139Z,79.28
2023-05-18T20:48:26.850Z,78.71
2023-05-18T20:50:53.670Z,79.04
2023-05-18T20:53:20.593Z,79.02
2023-05-18T20:55:47.754Z,78.78
2023-05-18T20:58:15.127Z,78.31
2023-05-18T21:00:42.878Z,78.79
2023-05-18T21:03:09.708Z,78.78
2023-05-18T21:05:36.456Z,78.54
2023-05-18T21:08:03.449Z,79.02
2023-05-18T21:10:30.596Z,79.22
2023-05-18T21:12:57.994Z,78.97
2023-05-18T21:15:24.968Z,78.99
2023-05-18T21:17:51.965Z,78.85
2023-05-18T21:20:18.984Z,79.27
2023-05-18T21:22:46.057Z,79.57
2023-05-18T21:25:12.704Z,80.12
2023-05-18T21:27:39.908Z,79.83
2023-05-18T21:30:07.204Z,79.69
2023-05-18T21:32:34.122Z,79.75
2023-05-18T21:35:00.980Z,79.32
2023-05-18T21:37:27.625Z,79.43
2023-05-18T21:39:54.310Z,79.27
2023-05-18T21:42:21.566Z,79.27
2023-05-18T21:44:48.285Z,79.15
2023-05-18T21:47:15.134Z,79.35
2023-05-18T21:49:41.914Z,79.64
2023-05-18T21:52:08.672Z,79.98
2023-05-18T21:54:35.576Z,80.24
2023-05-18T21:57:02.445Z,79.72
2023-05-18T21:59:29.150Z,79.67
2023-05-18T22:01:56.244Z,79.53
2023-05-18T22:04:23.119Z,79.47
2023-05-18T22:06:49.874Z,79.53
2023-05-18T22:09:16.913Z,79.61
2023-05-18T22:11:43.599Z,79.98
2023-05-18T22:14:10.332Z,79.75
2023-05-18T22:16:37.297Z,80.26
2023-05-18T22:19:04.088Z,79.59
2023-05-18T22:21:31.373Z,80.02
2023-05-18T22:23:58.166Z,80.11
2023-05-18T22:26:25.099Z,80.49
2023-05-18T22:28:51.811Z,80.51
2023-05-18T22:31:18.535Z,80.90
2023-05-18T22:33:45.215Z,80.89
2023-05-18T22:36:11.910Z,80.85
2023-05-18T22:38:41.625Z,81.12
2023-05-18T22:41:08.293Z,80.27
2023-05-18T22:43:34.928Z,80.13
2023-05-18T22:46:02.036Z,80.08
2023-05-18T22:48:28.973Z,80.21
2023-05-18T22:50:55.658Z,79.74
2023-05-18T22:53:22.345Z,79.49
2023-05-18T22:55:49.435Z,79.72
2023-05-18T22:58:16.105Z,80.05
2023-05-18T23:00:42.772Z,80.45
2023-05-18T23:03:09.542Z,79.41
2023-05-18T23:05:37.011Z,79.43
2023-05-18T23:08:05.236Z,80.50
2023-05-18T23:10:32.107Z,80.25
2023-05-18T23:12:59.820Z,80.55
2023-05-18T23:15:26.898Z,79.97
2023-05-18T23:17:56.385Z,80.28
2023-05-18T23:20:23.194Z,80.45
2023-05-18T23:22:49.895Z,80.83
2023-05-18T23:25:16.788Z,80.43
2023-05-18T23:27:44.605Z,80.50
2023-05-18T23:30:11.667Z,80.97
2023-05-18T23:32:38.713Z,80.83
2023-05-18T23:35:06.640Z,81.00
2023-05-18T23:37:33.463Z,81.30
2023-05-18T23:40:01.458Z,81.39
2023-05-18T23:42:28.321Z,81.64
2023-05-18T23:44:55.461Z,81.29
2023-05-18T23:47:22.495Z,80.99
2023-05-18T23:49:49.621Z,81.13
2023-05-18T23:52:16.674Z,80.66
2023-05-18T23:54:45.659Z,80.98
2023-05-18T23:57:12.527Z,80.88
2023-05-18T23:59:39.167Z,82.00
